createdAt,value
2023-03-26T00:02:12.534Z,7.00
2023-03-26T00:04:42.910Z,7.00
2023-03-26T00:07:12.916Z,6.90
2023-03-26T00:09:41.609Z,6.80
2023-03-26T00:12:09.776Z,6.80
2023-03-26T00:14:38.743Z,6.70
2023-03-26T00:17:08.624Z,6.70
2023-03-26T00:19:39.093Z,6.70
2023-03-26T00:22:07.295Z,6.70
2023-03-26T00:24:37.571Z,6.70
2023-03-26T00:27:05.957Z,6.70
2023-03-26T00:29:35.708Z,6.80
2023-03-26T00:32:04.952Z,6.80
2023-03-26T00:34:34.610Z,6.90
2023-03-26T00:37:04.930Z,6.90
2023-03-26T00:39:35.125Z,6.70
2023-03-26T00:42:07.345Z,6.90
2023-03-26T00:44:35.825Z,6.80
2023-03-26T00:47:04.191Z,7.00
2023-03-26T00:49:32.763Z,6.80
2023-03-26T00:52:03.342Z,6.80
2023-03-26T00:54:33.377Z,6.80
2023-03-26T00:57:02.086Z,6.80
2023-03-26T00:59:30.696Z,6.70
2023-03-26T01:02:00.421Z,6.60
2023-03-26T01:04:34.892Z,6.60
2023-03-26T01:07:11.503Z,6.50
2023-03-26T01:09:45.053Z,6.50
2023-03-26T01:12:18.668Z,6.40
2023-03-26T01:14:50.969Z,6.30
2023-03-26T01:17:20.052Z,6.20
2023-03-26T01:19:58.772Z,6.10
2023-03-26T01:22:28.589Z,6.10
2023-03-26T01:24:58.162Z,6.10
2023-03-26T01:27:41.180Z,6.20
2023-03-26T01:30:24.473Z,6.20
2023-03-26T01:33:02.086Z,6.30
2023-03-26T01:35:45.097Z,6.30
2023-03-26T01:38:27.888Z,6.30
2023-03-26T01:41:05.652Z,6.40
2023-03-26T01:43:44.878Z,6.40
2023-03-26T01:46:16.730Z,6.40
2023-03-26T01:48:47.675Z,6.50
2023-03-26T01:51:28.785Z,6.40
2023-03-26T01:53:59.131Z,6.40
2023-03-26T01:56:43.840Z,6.50
2023-03-26T01:59:43.862Z,6.50
2023-03-26T02:02:17.935Z,6.50
2023-03-26T02:04:55.809Z,6.50
2023-03-26T02:07:34.590Z,6.50
2023-03-26T02:10:10.440Z,6.50
2023-03-26T02:12:41.847Z,6.50
2023-03-26T02:15:12.245Z,6.60
2023-03-26T02:17:41.236Z,6.60
2023-03-26T02:20:12.371Z,6.60
2023-03-26T02:22:41.849Z,6.50
2023-03-26T02:25:11.591Z,6.40
2023-03-26T02:27:42.469Z,6.40
2023-03-26T02:30:16.667Z,6.40
2023-03-26T02:32:45.177Z,6.40
2023-03-26T02:35:14.808Z,6.40
2023-03-26T02:37:46.907Z,6.40
2023-03-26T02:40:15.268Z,6.40
2023-03-26T02:42:45.032Z,6.40
2023-03-26T02:45:13.312Z,6.40
2023-03-26T02:47:41.650Z,6.40
2023-03-26T02:50:12.006Z,6.40
2023-03-26T02:52:40.392Z,6.40
2023-03-26T02:55:09.778Z,6.50
2023-03-26T02:57:38.081Z,6.40
2023-03-26T03:00:15.342Z,6.30
2023-03-26T03:02:48.004Z,6.30
2023-03-26T03:05:18.935Z,6.30
2023-03-26T03:07:47.488Z,6.30
2023-03-26T03:10:16.318Z,6.20
2023-03-26T03:12:44.795Z,6.10
2023-03-26T03:15:15.159Z,6.30
2023-03-26T03:17:43.413Z,6.20
2023-03-26T03:20:13.613Z,6.20
2023-03-26T03:22:41.890Z,6.30
2023-03-26T03:25:14.294Z,6.30
2023-03-26T03:27:43.150Z,6.40
2023-03-26T03:30:15.314Z,6.40
2023-03-26T03:32:43.480Z,6.40
2023-03-26T03:35:11.654Z,6.40
2023-03-26T03:37:40.064Z,6.40
2023-03-26T03:40:12.023Z,6.50
2023-03-26T03:42:40.528Z,6.60
2023-03-26T03:45:10.396Z,6.70
2023-03-26T03:47:40.518Z,6.70
2023-03-26T03:50:11.926Z,6.70
2023-03-26T03:52:40.326Z,6.70
2023-03-26T03:55:10.636Z,6.70
2023-03-26T03:57:39.488Z,6.80
2023-03-26T04:00:10.487Z,6.80
2023-03-26T04:02:43.150Z,6.80
2023-03-26T04:05:12.223Z,6.80
2023-03-26T04:07:40.775Z,6.70
2023-03-26T04:10:11.068Z,6.70
2023-03-26T04:12:39.186Z,6.70
2023-03-26T04:15:08.716Z,6.70
2023-03-26T04:17:42.356Z,6.70
2023-03-26T04:20:15.719Z,6.70
2023-03-26T04:22:44.743Z,6.70
2023-03-26T04:25:15.635Z,6.80
2023-03-26T04:27:44.178Z,6.80
2023-03-26T04:30:23.866Z,6.80
2023-03-26T04:32:52.491Z,6.80
2023-03-26T04:35:22.115Z,6.90
2023-03-26T04:37:50.280Z,6.80
2023-03-26T04:40:22.400Z,6.80
2023-03-26T04:42:50.433Z,6.70
2023-03-26T04:45:22.845Z,6.70
2023-03-26T04:47:51.853Z,6.70
2023-03-26T04:50:22.445Z,6.70
2023-03-26T04:52:51.119Z,6.70
2023-03-26T04:55:27.135Z,6.70
2023-03-26T04:58:03.401Z,6.70
2023-03-26T05:00:31.636Z,6.70
2023-03-26T05:02:59.784Z,6.70
2023-03-26T05:05:30.821Z,6.70
2023-03-26T05:07:59.244Z,6.70
2023-03-26T05:10:27.527Z,6.70
2023-03-26T05:12:55.660Z,6.70
2023-03-26T05:15:24.184Z,6.80
2023-03-26T05:17:52.304Z,6.90
2023-03-26T05:20:24.141Z,6.90
2023-03-26T05:22:56.257Z,6.90
2023-03-26T05:25:24.378Z,7.00
2023-03-26T05:27:52.432Z,6.90
2023-03-26T05:30:22.764Z,6.80
2023-03-26T05:32:51.870Z,6.80
2023-03-26T05:35:22.111Z,6.80
2023-03-26T05:37:51.557Z,6.80
2023-03-26T05:40:21.778Z,6.80
2023-03-26T05:42:51.262Z,6.80
2023-03-26T05:45:19.754Z,6.80
2023-03-26T05:47:49.710Z,6.80
2023-03-26T05:50:17.937Z,6.80
2023-03-26T05:52:46.217Z,6.90
2023-03-26T05:55:14.411Z,6.80
2023-03-26T05:57:43.809Z,6.80
2023-03-26T06:00:15.552Z,6.90
2023-03-26T06:02:44.150Z,6.90
2023-03-26T06:05:12.458Z,6.90
2023-03-26T06:07:40.572Z,6.90
2023-03-26T06:10:10.737Z,6.90
2023-03-26T06:12:47.668Z,6.90
2023-03-26T06:15:15.993Z,6.90
2023-03-26T06:17:44.054Z,6.80
2023-03-26T06:20:14.115Z,6.90
2023-03-26T06:22:42.311Z,6.80
2023-03-26T06:25:11.022Z,6.90
2023-03-26T06:27:39.068Z,6.80
2023-03-26T06:30:10.533Z,6.80
2023-03-26T06:32:38.583Z,6.80
2023-03-26T06:35:07.672Z,6.80
2023-03-26T06:37:36.182Z,6.80
2023-03-26T06:40:05.066Z,6.90
2023-03-26T06:43:09.054Z,6.90
2023-03-26T06:45:22.806Z,7.00
2023-03-26T06:47:50.885Z,7.00
2023-03-26T06:50:19.284Z,7.10
2023-03-26T06:52:47.536Z,7.10
2023-03-26T06:55:15.810Z,7.20
2023-03-26T06:57:45.212Z,7.30
2023-03-26T07:00:17.117Z,7.40
2023-03-26T07:02:46.974Z,7.50
2023-03-26T07:05:15.799Z,7.50
2023-03-26T07:07:46.230Z,7.50
2023-03-26T07:10:15.567Z,7.60
2023-03-26T07:12:43.962Z,7.60
2023-03-26T07:15:12.770Z,7.70
2023-03-26T07:17:40.964Z,7.80
2023-03-26T07:20:12.656Z,7.90
2023-03-26T07:22:41.895Z,8.00
2023-03-26T07:25:12.691Z,8.20
2023-03-26T07:27:58.017Z,8.30
2023-03-26T07:30:39.240Z,8.30
2023-03-26T07:33:15.354Z,8.40
2023-03-26T07:35:57.856Z,8.40
2023-03-26T07:38:43.273Z,8.50
2023-03-26T07:41:23.871Z,8.60
2023-03-26T07:44:35.279Z,8.80
2023-03-26T07:47:19.752Z,8.90
2023-03-26T07:49:48.487Z,9.00
2023-03-26T07:52:18.742Z,8.90
2023-03-26T07:54:47.522Z,8.90
2023-03-26T07:57:28.866Z,9.10
2023-03-26T08:00:08.346Z,9.10
2023-03-26T08:03:12.050Z,9.30
2023-03-26T08:05:51.461Z,9.30
2023-03-26T08:08:32.486Z,9.40
2023-03-26T08:11:26.752Z,9.50
2023-03-26T08:14:16.524Z,10.30
2023-03-26T08:16:55.814Z,10.70
2023-03-26T08:19:43.347Z,10.40
2023-03-26T08:22:27.305Z,10.80
2023-03-26T08:25:19.175Z,10.70
2023-03-26T08:28:12.250Z,10.70
2023-03-26T08:30:41.757Z,10.60
2023-03-26T08:33:18.061Z,10.40
2023-03-26T08:35:49.268Z,10.30
2023-03-26T08:38:21.472Z,10.50
2023-03-26T08:41:50.949Z,10.60
2023-03-26T08:45:28.976Z,10.70
2023-03-26T08:48:40.890Z,10.70
2023-03-26T08:51:49.346Z,10.90
2023-03-26T08:55:11.911Z,11.10
2023-03-26T08:58:22.773Z,11.40
2023-03-26T09:01:34.047Z,11.80
2023-03-26T09:04:42.720Z,11.40
2023-03-26T09:08:07.173Z,11.00
2023-03-26T09:11:23.093Z,10.60
2023-03-26T09:14:44.581Z,10.60
2023-03-26T09:18:15.975Z,10.40
2023-03-26T09:21:33.060Z,10.10
2023-03-26T09:24:47.277Z,9.90
2023-03-26T09:27:38.088Z,10.40
2023-03-26T09:30:52.757Z,9.90
2023-03-26T09:33:49.589Z,9.80
2023-03-26T09:36:38.152Z,10.20
2023-03-26T09:39:23.267Z,10.50
2023-03-26T09:42:08.323Z,10.60
2023-03-26T09:45:25.207Z,10.60
2023-03-26T09:48:36.984Z,10.50
2023-03-26T09:51:40.762Z,10.70
2023-03-26T09:54:52.024Z,11.20
2023-03-26T09:57:38.899Z,11.40
2023-03-26T10:00:37.492Z,11.50
2023-03-26T10:03:34.103Z,11.40
2023-03-26T10:06:23.318Z,11.30
2023-03-26T10:09:19.939Z,11.10
2023-03-26T10:12:11.091Z,11.10
2023-03-26T10:14:52.723Z,11.10
2023-03-26T10:17:46.469Z,10.90
2023-03-26T10:20:35.037Z,10.90
2023-03-26T10:23:25.875Z,11.00
2023-03-26T10:26:19.162Z,11.10
2023-03-26T10:29:17.083Z,11.40
2023-03-26T10:31:59.916Z,11.70
2023-03-26T10:34:53.646Z,11.70
2023-03-26T10:37:46.680Z,11.70
2023-03-26T10:40:49.479Z,11.70
2023-03-26T10:44:22.875Z,11.60
2023-03-26T10:47:34.249Z,11.60
2023-03-26T10:50:30.055Z,12.30
2023-03-26T10:53:08.043Z,12.50
2023-03-26T10:55:41.738Z,12.00
2023-03-26T10:58:28.590Z,11.50
2023-03-26T11:01:05.604Z,11.60
2023-03-26T11:03:58.113Z,11.80
2023-03-26T11:06:47.541Z,12.10
2023-03-26T11:09:34.527Z,14.00
2023-03-26T11:12:27.005Z,13.60
2023-03-26T11:15:19.649Z,12.80
2023-03-26T11:18:04.871Z,12.70
2023-03-26T11:20:43.051Z,12.40
2023-03-26T11:23:34.186Z,12.40
2023-03-26T11:26:12.988Z,12.50
2023-03-26T11:29:31.452Z,12.80
2023-03-26T11:32:10.836Z,13.10
2023-03-26T11:34:44.588Z,13.70
2023-03-26T11:37:35.401Z,13.60
2023-03-26T11:40:25.970Z,13.80
2023-03-26T11:43:03.482Z,13.70
2023-03-26T11:45:37.407Z,13.40
2023-03-26T11:48:11.422Z,12.70
2023-03-26T11:50:48.911Z,12.00
2023-03-26T11:53:21.390Z,11.70
2023-03-26T11:56:04.324Z,11.70
2023-03-26T11:58:44.360Z,11.90
2023-03-26T12:01:17.650Z,12.00
2023-03-26T12:04:00.390Z,12.30
2023-03-26T12:06:33.148Z,12.60
2023-03-26T12:09:01.572Z,12.50
2023-03-26T12:11:35.645Z,12.30
2023-03-26T12:14:06.523Z,11.90
2023-03-26T12:16:36.233Z,11.40
2023-03-26T12:19:19.424Z,11.20
2023-03-26T12:21:51.145Z,10.90
2023-03-26T12:24:31.699Z,10.70
2023-03-26T12:27:03.859Z,10.30
2023-03-26T12:29:34.483Z,10.10
2023-03-26T12:32:14.346Z,10.00
2023-03-26T12:34:43.022Z,9.80
2023-03-26T12:37:36.983Z,9.90
2023-03-26T12:40:29.005Z,11.30
2023-03-26T12:44:50.057Z,13.30
2023-03-26T12:47:54.325Z,13.60
2023-03-26T12:48:44.451Z,13.60
2023-03-26T12:51:37.420Z,14.30
2023-03-26T12:54:28.957Z,14.80
2023-03-26T12:57:20.264Z,15.60
2023-03-26T13:00:28.686Z,16.20
2023-03-26T13:03:54.782Z,16.10
2023-03-26T13:06:58.865Z,15.00
2023-03-26T13:10:01.763Z,14.40
2023-03-26T13:12:43.977Z,14.70
2023-03-26T13:15:37.527Z,15.20
2023-03-26T13:18:34.225Z,15.30
2023-03-26T13:21:24.583Z,14.80
2023-03-26T13:24:09.348Z,14.70
2023-03-26T13:26:58.960Z,14.80
2023-03-26T13:29:39.497Z,14.20
2023-03-26T13:32:22.262Z,13.70
2023-03-26T13:35:13.208Z,13.30
2023-03-26T13:37:54.692Z,12.70
2023-03-26T13:40:37.082Z,12.20
2023-03-26T13:43:37.802Z,11.20
2023-03-26T13:46:21.339Z,9.50
2023-03-26T13:48:58.522Z,8.60
2023-03-26T13:51:31.893Z,8.20
2023-03-26T13:54:12.176Z,8.00
2023-03-26T13:56:48.312Z,8.20
2023-03-26T13:59:23.012Z,8.60
2023-03-26T14:01:59.635Z,9.40
2023-03-26T14:05:15.048Z,10.10
2023-03-26T14:07:49.338Z,10.90
2023-03-26T14:10:24.843Z,11.90
2023-03-26T14:13:01.542Z,12.30
2023-03-26T14:15:36.179Z,12.10
2023-03-26T14:18:28.760Z,11.30
2023-03-26T14:21:27.097Z,9.50
2023-03-26T14:24:44.620Z,6.90
2023-03-26T14:27:42.636Z,6.40
2023-03-26T14:31:13.804Z,6.40
2023-03-26T14:34:25.021Z,6.50
2023-03-26T14:37:30.710Z,6.80
2023-03-26T14:40:44.523Z,7.10
2023-03-26T14:44:20.412Z,7.50
2023-03-26T14:47:15.110Z,8.00
2023-03-26T14:50:31.491Z,8.50
2023-03-26T14:53:07.039Z,8.80
2023-03-26T14:56:13.685Z,9.20
2023-03-26T14:59:35.913Z,9.70
2023-03-26T15:02:54.322Z,10.10
2023-03-26T15:06:07.744Z,10.20
2023-03-26T15:09:28.959Z,10.00
2023-03-26T15:12:19.858Z,10.20
2023-03-26T15:15:53.901Z,10.80
2023-03-26T15:19:43.172Z,11.00
2023-03-26T15:23:13.561Z,11.20
2023-03-26T15:26:25.266Z,11.10
2023-03-26T15:29:42.296Z,10.90
2023-03-26T15:32:57.205Z,10.50
2023-03-26T15:35:57.773Z,9.90
2023-03-26T15:39:23.588Z,9.20
2023-03-26T15:41:59.484Z,8.40
2023-03-26T15:44:55.029Z,8.00
2023-03-26T15:47:54.297Z,7.80
2023-03-26T15:50:47.306Z,8.00
2023-03-26T15:53:36.633Z,8.20
2023-03-26T15:56:25.961Z,8.40
2023-03-26T15:59:06.498Z,8.60
2023-03-26T16:02:05.821Z,8.80
2023-03-26T16:04:51.756Z,8.90
2023-03-26T16:07:49.106Z,8.90
2023-03-26T16:10:29.259Z,8.90
2023-03-26T16:13:36.732Z,8.90
2023-03-26T16:16:26.256Z,8.90
2023-03-26T16:19:36.257Z,8.90
2023-03-26T16:22:09.697Z,9.00
2023-03-26T16:24:46.621Z,9.00
2023-03-26T16:27:35.356Z,9.00
2023-03-26T16:30:16.415Z,9.10
2023-03-26T16:32:49.049Z,9.10
2023-03-26T16:36:06.432Z,9.10
2023-03-26T16:39:02.514Z,9.10
2023-03-26T16:41:34.851Z,9.10
2023-03-26T16:44:17.003Z,9.10
2023-03-26T16:47:02.662Z,9.10
2023-03-26T16:50:08.917Z,9.10
2023-03-26T16:52:52.007Z,9.10
2023-03-26T16:55:36.592Z,9.10
2023-03-26T16:58:17.401Z,9.10
2023-03-26T17:04:11.613Z,9.00
2023-03-26T17:07:15.064Z,8.90
2023-03-26T17:10:03.902Z,8.90
2023-03-26T17:12:43.173Z,8.80
2023-03-26T17:15:32.078Z,8.70
2023-03-26T17:18:31.154Z,8.60
2023-03-26T17:21:14.122Z,8.60
2023-03-26T17:24:06.924Z,8.60
2023-03-26T17:26:56.387Z,8.70
2023-03-26T17:29:50.613Z,8.70
2023-03-26T17:32:23.642Z,8.60
2023-03-26T17:35:09.866Z,8.60
2023-03-26T17:37:51.979Z,8.50
2023-03-26T17:40:55.955Z,8.40
2023-03-26T17:43:47.756Z,8.30
2023-03-26T17:46:33.302Z,8.20
2023-03-26T17:49:12.224Z,8.20
2023-03-26T17:51:57.952Z,8.20
2023-03-26T17:54:35.925Z,8.10
2023-03-26T17:57:15.919Z,8.10
2023-03-26T17:59:49.395Z,8.20
2023-03-26T18:02:30.651Z,8.20
2023-03-26T18:05:00.730Z,8.10
2023-03-26T18:08:12.404Z,8.10
2023-03-26T18:11:19.016Z,8.00
2023-03-26T18:14:30.992Z,8.00
2023-03-26T18:17:03.418Z,8.00
2023-03-26T18:19:47.544Z,7.80
2023-03-26T18:22:23.178Z,7.70
2023-03-26T18:24:52.717Z,7.60
2023-03-26T18:27:24.021Z,7.50
2023-03-26T18:30:03.372Z,7.50
2023-03-26T18:32:34.071Z,7.40
2023-03-26T18:35:16.892Z,7.30
2023-03-26T18:37:46.030Z,7.30
2023-03-26T18:40:19.259Z,7.20
2023-03-26T18:42:52.472Z,7.20
2023-03-26T18:45:28.974Z,7.20
2023-03-26T18:48:03.835Z,7.20
2023-03-26T18:50:36.816Z,7.10
2023-03-26T18:53:07.463Z,7.10
2023-03-26T18:55:39.449Z,7.10
2023-03-26T18:58:25.266Z,7.10
2023-03-26T19:00:57.332Z,7.10
2023-03-26T19:03:29.514Z,7.10
2023-03-26T19:05:59.055Z,7.00
2023-03-26T19:08:27.670Z,7.00
2023-03-26T19:10:56.589Z,7.00
2023-03-26T19:13:25.024Z,7.00
2023-03-26T19:15:56.907Z,7.00
2023-03-26T19:18:29.638Z,7.00
2023-03-26T19:21:02.131Z,6.90
2023-03-26T19:23:36.080Z,6.90
2023-03-26T19:26:07.988Z,6.90
2023-03-26T19:28:40.377Z,6.90
2023-03-26T19:31:13.272Z,6.90
2023-03-26T19:33:45.077Z,6.90
2023-03-26T19:36:22.282Z,6.90
2023-03-26T19:38:54.003Z,6.80
2023-03-26T19:41:25.628Z,6.80
2023-03-26T19:43:57.979Z,6.80
2023-03-26T19:46:28.131Z,6.90
2023-03-26T19:48:58.941Z,6.80
2023-03-26T19:51:34.609Z,6.80
2023-03-26T19:54:13.899Z,6.80
2023-03-26T19:56:41.983Z,6.80
2023-03-26T19:59:10.116Z,6.80
2023-03-26T20:01:38.531Z,6.80
2023-03-26T20:04:13.834Z,6.80
2023-03-26T20:06:44.065Z,6.70
2023-03-26T20:09:13.925Z,6.70
2023-03-26T20:11:42.628Z,6.80
2023-03-26T20:14:16.678Z,6.80
2023-03-26T20:16:46.271Z,6.80
2023-03-26T20:19:16.696Z,6.80
2023-03-26T20:21:45.957Z,6.80
2023-03-26T20:24:17.144Z,6.80
2023-03-26T20:26:46.159Z,6.80
2023-03-26T20:29:15.857Z,6.90
2023-03-26T20:31:45.809Z,6.90
2023-03-26T20:34:20.452Z,6.90
2023-03-26T20:36:54.276Z,6.80
2023-03-26T20:39:23.797Z,6.90
2023-03-26T20:41:54.323Z,6.90
2023-03-26T20:44:23.010Z,6.80
2023-03-26T20:46:52.493Z,6.70
2023-03-26T20:49:22.827Z,6.50
2023-03-26T20:51:50.896Z,6.50
2023-03-26T20:54:23.114Z,6.50
2023-03-26T20:56:52.531Z,6.40
2023-03-26T20:59:26.386Z,6.30
2023-03-26T21:01:57.951Z,6.30
2023-03-26T21:04:28.292Z,6.30
2023-03-26T21:07:06.993Z,6.30
2023-03-26T21:09:40.328Z,6.40
2023-03-26T21:12:16.696Z,6.40
2023-03-26T21:14:46.708Z,6.40
2023-03-26T21:17:18.781Z,6.50
2023-03-26T21:19:50.418Z,6.60
2023-03-26T21:22:33.546Z,6.60
2023-03-26T21:25:22.769Z,6.60
2023-03-26T21:28:08.692Z,6.60
2023-03-26T21:30:37.648Z,6.60
2023-03-26T21:33:06.325Z,6.60
2023-03-26T21:35:36.980Z,6.60
2023-03-26T21:38:06.532Z,6.60
2023-03-26T21:40:35.378Z,6.70
2023-03-26T21:43:04.909Z,6.70
2023-03-26T21:45:34.190Z,6.70
2023-03-26T21:48:03.141Z,6.70
2023-03-26T21:50:32.223Z,6.70
2023-03-26T21:53:03.851Z,6.80
2023-03-26T21:55:42.856Z,6.80
2023-03-26T21:58:36.445Z,6.80
2023-03-26T22:01:29.932Z,6.80
2023-03-26T22:04:08.920Z,6.90
2023-03-26T22:06:45.697Z,6.90
2023-03-26T22:09:18.511Z,7.00
2023-03-26T22:11:48.904Z,7.00
2023-03-26T22:14:17.584Z,7.20
2023-03-26T22:16:45.686Z,7.30
2023-03-26T22:19:13.815Z,7.30
2023-03-26T22:21:41.953Z,7.40
2023-03-26T22:24:10.146Z,7.30
2023-03-26T22:26:39.745Z,7.30
2023-03-26T22:29:08.161Z,7.20
2023-03-26T22:31:38.960Z,7.10
2023-03-26T22:34:07.784Z,7.10
2023-03-26T22:36:40.299Z,7.00
2023-03-26T22:39:08.877Z,7.00
2023-03-26T22:41:37.245Z,7.00
2023-03-26T22:44:18.908Z,6.90
2023-03-26T22:46:49.445Z,6.90
2023-03-26T22:49:18.360Z,6.80
2023-03-26T22:51:47.173Z,6.80
2023-03-26T22:54:15.574Z,6.80
2023-03-26T22:56:44.101Z,6.80
2023-03-26T22:59:14.248Z,6.80
2023-03-26T23:01:44.098Z,6.90
2023-03-26T23:04:31.263Z,6.80
2023-03-26T23:07:02.893Z,6.70
2023-03-26T23:09:31.679Z,6.70
2023-03-26T23:12:03.677Z,6.70
2023-03-26T23:14:33.607Z,6.70
2023-03-26T23:17:02.222Z,6.60
2023-03-26T23:19:34.152Z,6.60
2023-03-26T23:22:02.565Z,6.50
2023-03-26T23:24:30.758Z,6.50
2023-03-26T23:27:00.278Z,6.40
2023-03-26T23:29:30.212Z,6.30
2023-03-26T23:32:02.328Z,6.40
2023-03-26T23:34:35.897Z,6.40
2023-03-26T23:37:05.696Z,6.50
2023-03-26T23:39:38.869Z,6.40
2023-03-26T23:42:07.444Z,6.50
2023-03-26T23:44:39.151Z,6.40
2023-03-26T23:47:10.248Z,6.40
2023-03-26T23:49:39.040Z,6.40
2023-03-26T23:52:07.648Z,6.40
2023-03-26T23:54:35.854Z,6.30
2023-03-26T23:57:04.768Z,6.30
2023-03-26T23:59:35.128Z,6.20
